Time;durP1;ratioP1;P1;durP2;ratioP2;P2;SDS_P1;SDS_P2;PMS_P1;PMS_P2;Temp;Humidity;BMP_temperature;BMP_pressure;BME280_temperature;BME280_humidity;BME280_pressure;Samples;Min_cycle;Max_cycle;Signal;HPM_P1;HPM_P2
2022/02/14 00:02:00;;;;;;;6.57;1.83;;;;;;;7.74;79.57;99686.81;4937059;28;20510;-74
2022/02/14 00:04:26;;;;;;;4.28;1.40;;;;;;;7.82;79.05;99693.84;4925939;29;20575;-73
2022/02/14 00:06:52;;;;;;;1.67;1.45;;;;;;;7.83;79.03;99686.56;4925786;29;20054;-74
2022/02/14 00:09:17;;;;;;;2.30;1.30;;;;;;;7.77;79.67;99678.06;4937747;28;20050;-74
2022/02/14 00:11:43;;;;;;;5.55;1.70;;;;;;;7.75;79.64;99674.97;4936544;28;20059;-74
2022/02/14 00:14:08;;;;;;;2.67;1.45;;;;;;;7.71;79.71;99679.50;4941435;29;20038;-74
2022/02/14 00:16:33;;;;;;;2.33;1.27;;;;;;;7.74;79.54;99672.66;4926410;29;20047;-74
2022/02/14 00:18:59;;;;;;;2.78;1.70;;;;;;;7.81;79.39;99667.41;4923436;29;20039;-74
2022/02/14 00:21:24;;;;;;;2.45;1.15;;;;;;;7.85;78.52;99660.19;4926223;29;20039;-74
2022/02/14 00:23:50;;;;;;;1.77;1.45;;;;;;;7.87;78.80;99664.06;4923013;29;20076;-74
2022/02/14 00:26:15;;;;;;;2.65;1.42;;;;;;;7.87;78.00;99647.19;4927171;29;20066;-73
2022/02/14 00:28:41;;;;;;;2.90;1.60;;;;;;;8.01;77.36;99652.78;4926318;29;20469;-73
2022/02/14 00:31:06;;;;;;;2.72;1.77;;;;;;;7.94;77.84;99639.25;4926379;29;20043;-74
2022/02/14 00:33:33;;;;;;;1.83;1.50;;;;;;;7.87;77.97;99647.19;4922066;29;20031;-73
2022/02/14 00:35:58;;;;;;;2.35;1.73;;;;;;;7.84;78.10;99637.97;4925152;29;20504;-73
2022/02/14 00:38:24;;;;;;;2.83;1.58;;;;;;;7.92;77.94;99644.19;4925844;29;20414;-74
2022/02/14 00:40:49;;;;;;;2.25;1.38;;;;;;;7.89;77.69;99637.66;4926447;29;20134;-73
2022/02/14 00:43:14;;;;;;;3.47;1.73;;;;;;;7.95;77.76;99632.78;4922110;29;20035;-74
2022/02/14 00:45:40;;;;;;;2.70;1.35;;;;;;;7.93;77.58;99627.00;4925452;29;20114;-74
2022/02/14 00:48:06;;;;;;;3.58;1.80;;;;;;;7.89;77.40;99626.16;4914673;29;20450;-74
2022/02/14 00:50:32;;;;;;;6.13;2.05;;;;;;;7.92;77.58;99622.75;4919567;29;20146;-73
2022/02/14 00:52:58;;;;;;;2.15;1.23;;;;;;;7.91;77.28;99624.69;4923668;29;20548;-74
2022/02/14 00:55:24;;;;;;;2.25;1.20;;;;;;;7.86;77.45;99613.47;4925633;29;20134;-74
2022/02/14 00:57:49;;;;;;;2.60;1.80;;;;;;;7.91;77.15;99616.66;4906858;28;20046;-73
2022/02/14 01:00:18;;;;;;;2.33;1.35;;;;;;;7.93;76.68;99618.97;4922412;29;20070;-74
2022/02/14 01:02:44;;;;;;;1.70;1.05;;;;;;;7.95;76.86;99609.44;4925778;29;20122;-74
2022/02/14 01:05:10;;;;;;;2.70;1.45;;;;;;;8.00;76.38;99600.28;4924643;29;20040;-73
2022/02/14 01:07:36;;;;;;;3.63;1.20;;;;;;;8.02;76.58;99604.16;4922617;29;20475;-74
2022/02/14 01:10:04;;;;;;;2.25;1.42;;;;;;;8.03;76.15;99594.22;4925217;29;20036;-73
2022/02/14 01:12:30;;;;;;;2.28;1.33;;;;;;;7.99;76.58;99590.69;4924115;29;20036;-74
2022/02/14 01:14:56;;;;;;;2.28;1.45;;;;;;;8.02;76.23;99593.44;4940238;28;20047;-74
2022/02/14 01:17:22;;;;;;;1.73;1.05;;;;;;;8.07;76.33;99595.78;4931271;29;20028;-74
2022/02/14 01:19:47;;;;;;;3.50;1.02;;;;;;;8.15;75.33;99586.69;4921994;29;20040;-74
2022/02/14 01:22:13;;;;;;;2.50;1.65;;;;;;;8.13;75.33;99582.81;4924753;29;20047;-74
2022/02/14 01:24:40;;;;;;;4.72;1.50;;;;;;;8.11;75.31;99577.81;4922032;29;20039;-74
2022/02/14 01:27:06;;;;;;;2.53;1.13;;;;;;;8.10;75.42;99570.16;4933580;29;20498;-74
2022/02/14 01:29:35;;;;;;;1.88;1.05;;;;;;;8.10;75.73;99559.44;4923020;29;20120;-74
2022/02/14 01:32:01;;;;;;;1.98;1.38;;;;;;;8.10;75.30;99562.13;4907913;29;20047;-74
2022/02/14 01:34:27;;;;;;;3.42;1.52;;;;;;;8.13;75.69;99558.69;4907446;29;20173;-74
2022/02/14 01:36:53;;;;;;;1.90;1.13;;;;;;;8.13;75.17;99562.16;4915731;29;20043;-74
2022/02/14 01:39:19;;;;;;;1.95;1.05;;;;;;;8.12;75.50;99559.84;4922717;29;20103;-74
2022/02/14 01:41:44;;;;;;;2.67;1.30;;;;;;;8.13;75.42;99558.69;4938937;28;20043;-75
2022/02/14 01:44:44;;;;;;;1.30;1.20;;;;;;;8.12;75.80;99551.78;4929310;29;20031;-73
2022/02/14 01:47:17;;;;;;;1.42;1.10;;;;;;;8.09;75.73;99550.59;4919636;29;20511;-74
2022/02/14 01:49:44;;;;;;;2.25;1.10;;;;;;;8.13;75.75;99547.97;4923766;29;20078;-74
2022/02/14 01:52:11;;;;;;;4.60;1.38;;;;;;;8.03;75.93;99548.63;4922954;29;20054;-74
2022/02/14 01:54:39;;;;;;;1.65;0.98;;;;;;;7.97;76.01;99550.09;4920945;29;20421;-74
2022/02/14 01:57:06;;;;;;;1.50;1.13;;;;;;;7.92;76.70;99543.13;4918929;29;20482;-74
2022/02/14 01:59:33;;;;;;;1.70;1.20;;;;;;;7.92;76.44;99532.41;4921036;29;20046;-73
2022/02/14 02:01:59;;;;;;;1.58;1.15;;;;;;;7.90;76.58;99539.25;4921287;29;20099;-74
2022/02/14 02:04:26;;;;;;;3.53;1.20;;;;;;;7.94;76.91;99532.03;4922523;29;20368;-73
2022/02/14 02:06:52;;;;;;;2.28;1.20;;;;;;;8.01;76.13;99527.53;4924417;29;20059;-73
2022/02/14 02:09:17;;;;;;;3.72;1.30;;;;;;;7.93;76.44;99525.16;4917619;29;20058;-74
2022/02/14 02:14:27;;;;;;;2.45;1.33;;;;;;;7.95;76.76;99517.50;4923967;29;20053;-73
2022/02/14 02:16:52;;;;;;;1.88;1.15;;;;;;;7.93;76.57;99509.06;4924869;29;20027;-74
2022/02/14 02:19:18;;;;;;;2.10;1.13;;;;;;;7.92;76.54;99515.53;4919709;29;20038;-74
2022/02/14 02:21:45;;;;;;;1.27;1.10;;;;;;;7.96;76.53;99505.63;4924541;29;20110;-74
2022/02/14 02:24:15;;;;;;;2.47;0.90;;;;;;;7.89;76.42;99489.50;4938705;28;20031;-73
2022/02/14 02:26:41;;;;;;;1.80;0.80;;;;;;;7.95;76.53;99493.38;4925048;29;20052;-74
2022/02/14 02:29:06;;;;;;;2.90;1.23;;;;;;;7.94;76.39;99502.56;4920739;29;20063;-74
2022/02/14 02:31:32;;;;;;;1.90;1.17;;;;;;;7.89;76.89;99494.84;4922871;29;20505;-74
2022/02/14 02:33:57;;;;;;;3.78;1.35;;;;;;;7.87;76.94;99483.72;4924225;29;20040;-74
2022/02/14 02:36:23;;;;;;;1.13;0.93;;;;;;;7.81;76.93;99488.63;4930704;29;20456;-74
2022/02/14 02:38:48;;;;;;;1.83;1.40;;;;;;;7.82;76.81;99482.13;4920612;29;20031;-75
2022/02/14 02:41:13;;;;;;;1.65;1.17;;;;;;;7.79;77.16;99484.75;4915483;29;20461;-73
2022/02/14 02:43:39;;;;;;;2.92;1.48;;;;;;;7.80;77.04;99470.25;4913511;29;20036;-74
2022/02/14 02:46:04;;;;;;;4.15;1.30;;;;;;;7.77;77.41;99462.91;4916107;29;20127;-74
2022/02/14 02:48:30;;;;;;;5.32;1.50;;;;;;;7.73;77.75;99465.56;4923200;29;20052;-74
2022/02/14 02:51:05;;;;;;;2.47;1.27;;;;;;;7.74;77.77;99455.63;4924360;29;20027;-74
2022/02/14 02:53:34;;;;;;;1.15;1.00;;;;;;;7.78;77.15;99453.75;4924878;29;20463;-74
2022/02/14 02:56:00;;;;;;;7.32;1.63;;;;;;;7.72;77.89;99442.59;4940042;28;20043;-73
2022/02/14 02:58:26;;;;;;;3.65;1.02;;;;;;;7.75;77.54;99438.41;4927083;29;20110;-74
2022/02/14 03:00:51;;;;;;;1.30;1.10;;;;;;;7.70;77.62;99450.22;4928659;29;20110;-74
2022/02/14 03:03:17;;;;;;;3.13;1.38;;;;;;;7.66;78.09;99444.06;4924052;29;20039;-74
2022/02/14 03:05:42;;;;;;;1.73;1.13;;;;;;;7.68;77.82;99439.09;4927630;29;20477;-74
2022/02/14 03:08:08;;;;;;;2.20;1.17;;;;;;;7.66;78.21;99432.56;4926346;29;20047;-73
2022/02/14 03:10:33;;;;;;;1.83;1.20;;;;;;;7.71;77.84;99418.81;4926919;29;20104;-73
2022/02/14 03:12:59;;;;;;;1.55;1.10;;;;;;;7.74;77.28;99418.88;4925594;29;20042;-74
2022/02/14 03:15:24;;;;;;;2.25;1.08;;;;;;;7.82;77.62;99417.81;4926247;29;20381;-74
2022/02/14 03:17:50;;;;;;;2.50;1.40;;;;;;;7.74;77.43;99416.19;4940417;29;20024;-73
2022/02/14 03:20:15;;;;;;;1.40;1.30;;;;;;;7.75;78.00;99415.06;4940899;28;20039;-73
2022/02/14 03:22:41;;;;;;;2.63;1.30;;;;;;;7.75;77.78;99406.25;4923598;29;20027;-73
2022/02/14 03:25:06;;;;;;;3.63;1.45;;;;;;;7.67;78.18;99409.97;4927402;29;20032;-73
2022/02/14 03:27:32;;;;;;;1.58;1.02;;;;;;;7.66;78.11;99411.13;4925780;29;20032;-73
2022/02/14 03:29:58;;;;;;;7.05;1.00;;;;;;;7.73;78.16;99408.50;4923759;29;20040;-74
2022/02/14 03:32:24;;;;;;;5.88;1.27;;;;;;;7.78;77.78;99411.63;4925971;29;20028;-74
2022/02/14 03:34:49;;;;;;;3.42;1.40;;;;;;;7.71;78.12;99392.03;4926419;29;20115;-73
2022/02/14 03:37:15;;;;;;;2.03;1.25;;;;;;;7.69;78.33;99395.09;4921620;29;20115;-73
2022/02/14 03:39:40;;;;;;;1.33;1.23;;;;;;;7.70;78.33;99395.88;4926788;29;20509;-73
2022/02/14 03:42:06;;;;;;;1.85;0.90;;;;;;;7.70;78.23;99396.66;4927318;29;20444;-74
2022/02/14 03:44:32;;;;;;;1.25;1.05;;;;;;;7.62;78.61;99391.56;4927196;29;20659;-74
2022/02/14 03:46:58;;;;;;;0.82;0.75;;;;;;;7.69;78.45;99397.00;4922988;29;20048;-74
2022/02/14 03:49:23;;;;;;;1.88;1.17;;;;;;;7.67;78.83;99386.66;4926015;29;20070;-74
2022/02/14 03:51:48;;;;;;;1.20;0.90;;;;;;;7.69;78.71;99384.38;4933872;29;20032;-74
2022/02/14 03:54:14;;;;;;;2.90;1.08;;;;;;;7.74;78.46;99385.97;4927782;29;20102;-73
2022/02/14 03:56:39;;;;;;;3.30;1.15;;;;;;;7.62;79.15;99383.53;4922707;29;20043;-74
2022/02/14 03:59:05;;;;;;;4.70;1.13;;;;;;;7.64;79.20;99387.38;4926955;29;20279;-73
2022/02/14 04:01:30;;;;;;;1.92;1.50;;;;;;;7.65;79.12;99385.47;4926564;29;20182;-74
2022/02/14 04:03:55;;;;;;;3.92;1.30;;;;;;;7.67;78.93;99378.59;4925167;29;20062;-74
2022/02/14 04:06:21;;;;;;;2.08;1.40;;;;;;;7.63;78.91;99374.34;4923377;29;20052;-73
2022/02/14 04:08:46;;;;;;;2.30;1.33;;;;;;;7.64;79.34;99379.34;4923991;29;20071;-74
2022/02/14 04:11:12;;;;;;;1.45;1.13;;;;;;;7.69;78.78;99376.34;4923346;29;20039;-74
2022/02/14 04:13:37;;;;;;;1.67;0.90;;;;;;;7.62;79.58;99383.53;4925555;29;20436;-75
2022/02/14 04:16:03;;;;;;;1.88;1.15;;;;;;;7.59;79.53;99370.88;4926004;29;20413;-74
2022/02/14 04:18:29;;;;;;;1.65;1.15;;;;;;;7.64;79.43;99379.34;4913842;29;20064;-74
2022/02/14 04:20:55;;;;;;;2.17;0.90;;;;;;;7.64;79.33;99378.56;4924055;29;20058;-73
2022/02/14 04:23:20;;;;;;;1.85;1.08;;;;;;;7.70;79.18;99363.72;4924791;29;20042;-74
2022/02/14 04:25:46;;;;;;;1.25;0.90;;;;;;;7.67;79.38;99354.50;4916231;29;20055;-74
2022/02/14 04:28:11;;;;;;;2.35;1.42;;;;;;;7.71;79.28;99349.16;4924187;29;20108;-74
2022/02/14 04:30:37;;;;;;;3.97;1.20;;;;;;;7.66;79.53;99354.88;4926423;29;20083;-74
2022/02/14 04:33:02;;;;;;;1.33;0.90;;;;;;;7.68;79.30;99349.91;4913259;29;20114;-74
2022/02/14 04:35:29;;;;;;;6.15;1.17;;;;;;;7.65;79.45;99348.72;4930765;29;20089;-74
2022/02/14 04:37:59;;;;;;;1.88;1.30;;;;;;;7.71;79.86;99351.84;4935995;29;20036;-74
2022/02/14 04:40:26;;;;;;;3.22;1.17;;;;;;;7.71;79.23;99349.94;4940755;28;20070;-74
2022/02/14 04:42:51;;;;;;;1.23;0.90;;;;;;;7.65;79.61;99345.28;4944093;28;20506;-74
2022/02/14 04:45:17;;;;;;;3.35;1.58;;;;;;;7.72;79.28;99345.38;4930531;28;20064;-74
2022/02/14 04:47:42;;;;;;;2.55;1.20;;;;;;;7.68;79.33;99345.34;4924395;29;20031;-74
2022/02/14 04:50:08;;;;;;;3.78;1.40;;;;;;;7.77;79.46;99348.47;4925050;29;20035;-74
2022/02/14 04:52:34;;;;;;;2.70;1.40;;;;;;;7.84;78.99;99337.06;4926384;29;20035;-74
2022/02/14 04:55:00;;;;;;;1.70;1.23;;;;;;;7.83;78.92;99336.28;4920009;29;20404;-74
2022/02/14 04:57:25;;;;;;;5.88;1.70;;;;;;;7.81;78.42;99335.88;4924488;29;20416;-73
2022/02/14 04:59:51;;;;;;;3.97;1.30;;;;;;;7.85;79.03;99338.59;4919795;29;20461;-73
2022/02/14 05:02:16;;;;;;;1.48;1.00;;;;;;;7.87;78.74;99339.00;4919973;29;20063;-73
2022/02/14 05:04:42;;;;;;;1.98;1.50;;;;;;;7.81;79.09;99329.75;4916380;29;20474;-73
2022/02/14 05:07:07;;;;;;;3.63;1.20;;;;;;;7.86;78.70;99334.75;4926363;29;20043;-74
2022/02/14 05:09:32;;;;;;;2.33;1.33;;;;;;;7.90;78.70;99341.72;4916483;29;20050;-73
2022/02/14 05:11:58;;;;;;;2.90;1.10;;;;;;;7.86;78.62;99330.19;4921427;29;20039;-74
2022/02/14 05:14:23;;;;;;;1.83;1.25;;;;;;;7.82;79.25;99329.38;4925459;29;20028;-74
2022/02/14 05:16:49;;;;;;;1.20;1.05;;;;;;;7.85;79.11;99328.66;4912308;29;20035;-74
2022/02/14 05:19:14;;;;;;;1.95;1.27;;;;;;;7.87;78.71;99325.59;4908204;29;20051;-74
2022/02/14 05:21:40;;;;;;;3.08;1.23;;;;;;;7.92;78.77;99323.34;4920112;29;20043;-74
2022/02/14 05:24:05;;;;;;;2.97;1.27;;;;;;;7.88;78.95;99311.81;4924716;29;20079;-74
2022/02/14 05:26:31;;;;;;;1.70;1.38;;;;;;;7.88;78.67;99313.72;4938262;29;20048;-73
2022/02/14 05:28:56;;;;;;;2.90;1.67;;;;;;;7.83;78.79;99312.19;4924025;29;20032;-74
2022/02/14 05:31:22;;;;;;;3.30;1.33;;;;;;;7.80;79.24;99304.84;4923371;29;20046;-74
2022/02/14 05:33:49;;;;;;;2.28;1.45;;;;;;;7.90;79.18;99306.09;4925673;29;20047;-74
2022/02/14 05:36:16;;;;;;;0.90;0.90;;;;;;;7.86;79.12;99302.59;4924804;29;20039;-74
2022/02/14 05:38:55;;;;;;;1.85;1.48;;;;;;;7.91;79.12;99304.97;4919761;29;20067;-74
2022/02/14 05:41:21;;;;;;;1.98;1.45;;;;;;;7.95;78.14;99298.50;4918382;29;20489;-74
2022/02/14 05:43:47;;;;;;;3.25;1.17;;;;;;;7.91;79.01;99307.66;4913013;29;20039;-74
2022/02/14 05:46:13;;;;;;;1.75;0.98;;;;;;;7.81;78.92;99293.03;4921942;29;20402;-73
2022/02/14 05:48:43;;;;;;;1.10;0.90;;;;;;;7.89;78.90;99299.97;4920679;29;20095;-74
2022/02/14 05:51:09;;;;;;;1.00;0.90;;;;;;;7.87;79.00;99296.91;4918423;29;20043;-74
2022/02/14 05:53:35;;;;;;;2.28;1.25;;;;;;;7.98;78.49;99296.97;4923461;29;20496;-73
2022/02/14 05:56:01;;;;;;;2.53;1.30;;;;;;;7.91;78.61;99288.88;4923026;28;20046;-72
2022/02/14 05:58:26;;;;;;;1.60;1.38;;;;;;;7.86;78.71;99294.56;4923952;29;20048;-72
2022/02/14 06:00:52;;;;;;;2.80;1.25;;;;;;;7.97;78.85;99290.09;4920517;29;20067;-73
2022/02/14 06:03:17;;;;;;;2.92;1.50;;;;;;;7.97;79.06;99295.44;4926067;28;20030;-74
2022/02/14 06:05:42;;;;;;;1.77;1.20;;;;;;;7.97;78.78;99290.09;4922107;29;20050;-73
2022/02/14 06:08:08;;;;;;;4.20;1.23;;;;;;;7.97;79.15;99298.13;4922027;29;20114;-73
2022/02/14 06:10:33;;;;;;;1.33;1.20;;;;;;;8.02;78.61;99295.09;4918219;29;20148;-73
2022/02/14 06:12:59;;;;;;;4.57;1.55;;;;;;;7.94;79.04;99294.28;4922076;29;20043;-72
2022/02/14 06:15:24;;;;;;;1.98;1.38;;;;;;;8.01;78.83;99298.94;4914530;29;20115;-74
2022/02/14 06:17:49;;;;;;;1.90;1.27;;;;;;;7.99;79.06;99310.00;4925246;29;20043;-74
2022/02/14 06:20:15;;;;;;;6.78;1.30;;;;;;;7.94;79.05;99306.91;4915897;29;20050;-74
2022/02/14 06:22:41;;;;;;;2.05;1.30;;;;;;;7.94;78.93;99298.84;4921595;29;20040;-72
2022/02/14 06:25:06;;;;;;;3.00;1.35;;;;;;;7.93;79.33;99294.66;4922866;29;20039;-73
2022/02/14 06:27:32;;;;;;;2.50;1.38;;;;;;;7.93;79.20;99300.00;4903702;29;20032;-74
2022/02/14 06:29:57;;;;;;;3.35;1.23;;;;;;;7.93;79.12;99290.06;4922377;28;20043;-74
2022/02/14 06:32:23;;;;;;;2.50;1.23;;;;;;;7.95;79.53;99303.09;4926498;28;20027;-73
2022/02/14 06:34:48;;;;;;;1.15;1.05;;;;;;;7.93;79.27;99308.06;4932693;29;20042;-73
2022/02/14 06:37:14;;;;;;;1.23;1.00;;;;;;;7.99;79.27;99311.94;4916704;28;20028;-74
2022/02/14 06:39:39;;;;;;;1.55;1.00;;;;;;;7.88;79.22;99311.06;4934029;29;20035;-73
2022/02/14 06:42:05;;;;;;;1.80;1.20;;;;;;;7.95;79.32;99311.91;4933490;29;20048;-74
2022/02/14 06:44:30;;;;;;;3.15;1.27;;;;;;;7.97;79.08;99301.59;4927999;29;20032;-74
2022/02/14 06:46:56;;;;;;;1.45;1.13;;;;;;;7.95;78.92;99306.56;4927638;29;20050;-72
2022/02/14 06:49:21;;;;;;;2.60;1.25;;;;;;;7.94;79.09;99304.22;4925943;29;20120;-74
2022/02/14 06:51:47;;;;;;;2.80;1.00;;;;;;;7.89;79.54;99304.56;4927782;29;20078;-74
2022/02/14 06:54:12;;;;;;;1.55;1.00;;;;;;;7.87;79.82;99306.84;4927967;29;20034;-72
2022/02/14 06:56:37;;;;;;;1.60;0.98;;;;;;;7.87;79.78;99321.03;4934952;28;20035;-74
2022/02/14 06:59:03;;;;;;;2.20;1.00;;;;;;;7.93;78.93;99308.06;4923827;29;20044;-74
2022/02/14 07:01:28;;;;;;;4.47;1.50;;;;;;;7.97;78.89;99309.63;4926557;29;20422;-74
2022/02/14 07:03:54;;;;;;;1.20;1.10;;;;;;;8.03;79.27;99321.53;4927504;29;20027;-74
2022/02/14 07:06:19;;;;;;;1.27;0.90;;;;;;;7.99;79.25;99314.63;4934874;29;20050;-74
2022/02/14 07:08:45;;;;;;;1.67;0.95;;;;;;;7.96;79.23;99318.03;4932740;29;20038;-73
2022/02/14 07:11:11;;;;;;;1.13;0.85;;;;;;;8.02;78.94;99314.63;4939209;29;20115;-74
2022/02/14 07:13:36;;;;;;;1.85;1.00;;;;;;;8.01;78.52;99315.75;4942375;28;20042;-72
2022/02/14 07:16:02;;;;;;;1.48;1.10;;;;;;;8.00;79.17;99311.56;4952999;28;20043;-74
2022/02/14 07:18:28;;;;;;;1.65;1.15;;;;;;;8.04;78.63;99304.31;4928607;29;20079;-74
2022/02/14 07:20:54;;;;;;;3.20;1.63;;;;;;;8.09;78.70;99309.31;4924630;29;20051;-74
2022/02/14 07:23:20;;;;;;;3.40;0.98;;;;;;;8.11;78.88;99298.22;4930587;29;20032;-74
2022/02/14 07:25:47;;;;;;;1.58;1.20;;;;;;;8.08;78.19;99299.75;4927270;29;20034;-74
2022/02/14 07:28:12;;;;;;;1.55;1.20;;;;;;;8.13;78.18;99304.75;4924319;29;20047;-74
2022/02/14 07:30:38;;;;;;;1.80;0.90;;;;;;;8.16;77.65;99295.22;4924716;29;20441;-74
2022/02/14 07:33:04;;;;;;;1.20;0.80;;;;;;;8.29;77.45;99293.03;4924575;29;20024;-74
2022/02/14 07:35:29;;;;;;;1.17;1.00;;;;;;;8.32;76.72;99289.63;4926804;29;20081;-73
2022/02/14 07:37:54;;;;;;;1.63;0.90;;;;;;;8.34;76.70;99282.75;4928313;29;20485;-74
2022/02/14 07:40:20;;;;;;;2.53;1.27;;;;;;;8.33;76.74;99273.16;4927938;29;20508;-74
2022/02/14 07:42:45;;;;;;;1.02;0.93;;;;;;;8.38;76.34;99275.47;4934202;29;20441;-74
2022/02/14 07:45:11;;;;;;;0.77;0.77;;;;;;;8.45;76.50;99286.25;4930977;29;20043;-74
2022/02/14 07:47:37;;;;;;;1.20;0.80;;;;;;;8.51;75.85;99281.31;4928087;29;20123;-74
2022/02/14 07:50:11;;;;;;;1.98;0.98;;;;;;;8.71;75.20;99280.66;4933436;29;20098;-73
2022/02/14 07:52:37;;;;;;;1.65;1.15;;;;;;;8.74;75.02;99287.97;4925910;29;20039;-72
2022/02/14 07:55:03;;;;;;;2.80;1.17;;;;;;;8.75;74.85;99280.69;4933751;29;20047;-72
2022/02/14 07:57:30;;;;;;;1.27;0.90;;;;;;;8.80;74.88;99289.16;4920259;29;20028;-73
2022/02/14 07:59:56;;;;;;;1.60;0.90;;;;;;;8.91;73.94;99284.59;4925203;29;20127;-74
2022/02/14 08:02:24;;;;;;;1.85;1.10;;;;;;;8.91;74.72;99291.88;4920306;29;20031;-74
2022/02/14 08:04:49;;;;;;;3.05;0.88;;;;;;;8.94;74.29;99299.94;4923850;29;20490;-71
2022/02/14 08:07:15;;;;;;;2.45;1.00;;;;;;;9.03;73.91;99295.00;4922281;29;20039;-73
2022/02/14 08:09:41;;;;;;;1.17;0.90;;;;;;;9.08;74.11;99280.41;4927423;28;20152;-74
2022/02/14 08:12:08;;;;;;;2.08;1.15;;;;;;;9.16;73.92;99286.59;4934569;28;20110;-74
2022/02/14 08:14:38;;;;;;;3.50;1.00;;;;;;;9.13;73.60;99276.63;4937535;28;20040;-74
2022/02/14 08:17:06;;;;;;;3.05;1.05;;;;;;;9.22;73.74;99274.34;4936860;28;20035;-74
2022/02/14 08:19:34;;;;;;;1.02;0.93;;;;;;;9.23;73.95;99275.88;4934936;28;20032;-74
2022/02/14 08:21:59;;;;;;;1.33;1.13;;;;;;;9.34;73.19;99280.13;4926091;29;20083;-74
2022/02/14 08:24:25;;;;;;;1.80;0.95;;;;;;;9.34;73.25;99272.09;4923536;29;20039;-74
2022/02/14 08:26:50;;;;;;;1.55;0.93;;;;;;;9.46;73.46;99285.16;4925454;29;20418;-74
2022/02/14 08:29:16;;;;;;;1.27;1.10;;;;;;;9.49;73.45;99273.63;4921110;29;20035;-74
2022/02/14 08:31:41;;;;;;;0.88;0.88;;;;;;;9.65;72.58;99271.38;4924784;29;20489;-73
2022/02/14 08:34:07;;;;;;;1.65;1.10;;;;;;;9.74;72.63;99282.50;4924769;29;20052;-74
2022/02/14 08:36:34;;;;;;;2.22;1.17;;;;;;;9.83;72.51;99271.41;4926451;29;20114;-74
2022/02/14 08:39:00;;;;;;;1.40;0.93;;;;;;;9.90;72.16;99271.38;4919362;29;20031;-73
2022/02/14 08:41:25;;;;;;;1.75;1.33;;;;;;;9.92;72.22;99264.47;4924053;29;20055;-74
2022/02/14 08:43:51;;;;;;;1.33;0.90;;;;;;;9.99;72.02;99266.38;4922381;29;20095;-74
2022/02/14 08:46:20;;;;;;;3.70;1.15;;;;;;;10.03;72.41;99270.63;4922670;29;20134;-73
2022/02/14 08:48:46;;;;;;;1.17;0.90;;;;;;;10.02;72.73;99271.78;4921751;29;20043;-73
2022/02/14 08:51:11;;;;;;;3.33;1.67;;;;;;;10.00;72.59;99262.56;4924988;29;20042;-74
2022/02/14 08:53:37;;;;;;;1.73;1.13;;;;;;;10.05;73.08;99259.47;4922491;29;20448;-74
2022/02/14 08:56:07;;;;;;;2.55;1.45;;;;;;;10.11;72.61;99263.34;4921227;29;20046;-75
2022/02/14 08:58:36;;;;;;;5.72;0.93;;;;;;;10.17;72.32;99259.09;4924631;29;20386;-74
2022/02/14 09:01:03;;;;;;;1.85;0.95;;;;;;;10.18;72.37;99254.50;4919274;29;20043;-72
2022/02/14 09:03:28;;;;;;;2.53;0.95;;;;;;;10.07;72.93;99249.09;4936828;29;20054;-74
2022/02/14 09:05:53;;;;;;;1.20;0.70;;;;;;;10.18;73.31;99254.50;4924554;29;20035;-74
2022/02/14 09:08:20;;;;;;;0.95;0.65;;;;;;;10.20;73.56;99252.19;4916018;29;20127;-73
2022/02/14 09:10:47;;;;;;;2.70;1.42;;;;;;;10.23;73.59;99244.13;4921127;29;20039;-74
2022/02/14 09:13:12;;;;;;;3.78;0.85;;;;;;;10.33;73.27;99243.34;4925781;29;20031;-74
2022/02/14 09:15:38;;;;;;;4.10;0.95;;;;;;;10.30;73.81;99238.72;4923498;29;20043;-74
2022/02/14 09:18:04;;;;;;;1.25;0.80;;;;;;;10.40;73.49;99251.38;4921174;29;20028;-75
2022/02/14 09:20:30;;;;;;;1.98;1.00;;;;;;;10.40;74.16;99235.25;4926034;28;20039;-73
2022/02/14 09:22:56;;;;;;;2.45;0.82;;;;;;;10.48;73.63;99231.38;4924557;29;20028;-74
2022/02/14 09:25:23;;;;;;;0.75;0.65;;;;;;;10.49;73.85;99230.22;4922814;29;20047;-74
2022/02/14 09:27:49;;;;;;;2.03;1.00;;;;;;;10.61;73.70;99231.72;4921416;29;20069;-74
2022/02/14 09:30:15;;;;;;;1.35;1.00;;;;;;;10.76;73.34;99225.88;4919916;29;20036;-74
2022/02/14 09:32:40;;;;;;;1.10;0.70;;;;;;;10.77;72.99;99222.06;4922792;29;20382;-74
2022/02/14 09:35:06;;;;;;;1.95;0.90;;;;;;;10.84;72.82;99250.88;4924942;29;20560;-73
2022/02/14 09:37:32;;;;;;;1.65;1.13;;;;;;;10.94;72.69;99233.16;4922982;29;20036;-73
2022/02/14 09:39:59;;;;;;;1.75;1.05;;;;;;;10.95;72.83;99235.44;4927581;29;20039;-74
2022/02/14 09:42:24;;;;;;;2.25;1.13;;;;;;;11.06;72.82;99221.91;4932341;28;20034;-74
2022/02/14 09:44:50;;;;;;;1.30;0.80;;;;;;;11.03;72.91;99230.78;4931994;29;20050;-74
2022/02/14 09:47:16;;;;;;;1.05;0.90;;;;;;;11.07;72.51;99228.84;4932983;29;20046;-75
2022/02/14 09:49:42;;;;;;;4.15;1.00;;;;;;;11.21;72.08;99229.53;4933850;28;20039;-74
2022/02/14 09:52:09;;;;;;;1.00;0.82;;;;;;;11.23;72.00;99237.22;4931218;28;21028;-74
2022/02/14 09:54:34;;;;;;;2.00;0.93;;;;;;;11.32;72.35;99221.41;4926322;28;20035;-74
2022/02/14 09:57:00;;;;;;;1.45;1.02;;;;;;;11.55;71.80;99216.22;4933503;28;20212;-74
2022/02/14 09:59:25;;;;;;;1.55;0.82;;;;;;;11.70;71.64;99225.78;4931654;28;20042;-74
2022/02/14 10:01:52;;;;;;;1.00;0.80;;;;;;;11.77;70.58;99213.00;4929626;29;20393;-74
2022/02/14 10:04:18;;;;;;;0.82;0.68;;;;;;;11.87;70.35;99221.38;4932411;28;20036;-73
2022/02/14 10:06:45;;;;;;;1.10;0.80;;;;;;;11.90;70.99;99236.78;4931402;29;20031;-74
2022/02/14 10:09:16;;;;;;;0.93;0.77;;;;;;;12.15;70.57;99238.13;4923876;29;20050;-73
2022/02/14 10:12:14;;;;;;;0.65;0.63;;;;;;;12.34;69.70;99237.53;4927360;29;20032;-74
2022/02/14 10:14:40;;;;;;;1.02;0.60;;;;;;;12.35;69.78;99233.66;4944373;28;20191;-74
2022/02/14 10:17:06;;;;;;;1.00;0.80;;;;;;;12.35;69.82;99241.00;4917409;29;20872;-74
2022/02/14 10:19:54;;;;;;;1.85;0.88;;;;;;;12.42;69.38;99232.84;4921309;28;20043;-75
2022/02/14 10:22:20;;;;;;;1.13;0.82;;;;;;;12.35;69.91;99257.97;4919543;29;20063;-73
2022/02/14 10:24:45;;;;;;;1.05;0.57;;;;;;;12.39;70.04;99256.00;4923014;29;20063;-74
2022/02/14 10:27:13;;;;;;;0.65;0.52;;;;;;;12.41;69.83;99250.19;4922272;29;20468;-74
2022/02/14 10:29:39;;;;;;;1.30;0.70;;;;;;;12.38;69.83;99256.41;4922485;29;20123;-74
2022/02/14 10:32:05;;;;;;;3.25;0.68;;;;;;;12.47;69.91;99252.06;4922146;29;20032;-74
2022/02/14 10:34:34;;;;;;;1.90;1.02;;;;;;;12.53;69.86;99239.66;4922680;29;20028;-75
2022/02/14 10:36:59;;;;;;;2.63;0.80;;;;;;;12.68;70.08;99245.66;4912443;29;20035;-74
2022/02/14 10:39:25;;;;;;;0.77;0.50;;;;;;;12.60;69.61;99253.06;4922873;29;20062;-75
2022/02/14 10:41:58;;;;;;;2.60;0.77;;;;;;;12.60;69.82;99246.91;4921677;29;20043;-73
2022/02/14 10:47:13;;;;;;;1.05;0.68;;;;;;;12.79;69.64;99254.41;4917282;29;20031;-74
2022/02/14 10:49:41;;;;;;;1.08;0.73;;;;;;;12.86;69.91;99254.31;4924392;29;20377;-74
2022/02/14 10:52:09;;;;;;;1.45;0.68;;;;;;;12.96;69.98;99252.66;4920874;29;20753;-74
2022/02/14 10:54:44;;;;;;;3.83;0.80;;;;;;;12.97;69.59;99271.16;4922082;29;20039;-74
2022/02/14 10:57:31;;;;;;;0.93;0.60;;;;;;;13.05;69.40;99267.25;4917997;29;20048;-73
2022/02/14 10:59:57;;;;;;;1.25;0.77;;;;;;;13.06;69.54;99265.31;4922355;29;20674;-74
2022/02/14 11:02:22;;;;;;;0.80;0.70;;;;;;;13.09;69.20;99257.16;4926999;29;20049;-73
2022/02/14 11:04:50;;;;;;;0.95;0.60;;;;;;;13.10;68.82;99257.94;4925063;28;20040;-73
2022/02/14 11:07:18;;;;;;;5.70;0.68;;;;;;;13.17;69.36;99265.94;4911305;28;20040;-73
2022/02/14 11:09:47;;;;;;;1.33;0.73;;;;;;;13.29;68.68;99254.59;4919683;29;20060;-73
2022/02/14 11:12:13;;;;;;;0.60;0.40;;;;;;;13.29;68.22;99268.88;4914004;29;20031;-73
2022/02/14 11:14:44;;;;;;;0.52;0.40;;;;;;;13.31;68.53;99274.66;4915344;28;20036;-74
2022/02/14 11:17:12;;;;;;;1.38;0.70;;;;;;;13.26;68.63;99268.91;4921877;29;20047;-73
2022/02/14 11:19:42;;;;;;;4.95;0.65;;;;;;;13.34;68.78;99267.63;4920795;29;20071;-73
2022/02/14 11:22:10;;;;;;;1.80;0.60;;;;;;;13.29;68.78;99265.41;4926055;29;20082;-74
2022/02/14 11:24:39;;;;;;;0.73;0.50;;;;;;;13.32;68.62;99257.25;4927275;29;20023;-73
2022/02/14 11:27:09;;;;;;;0.50;0.50;;;;;;;13.46;68.39;99270.56;4924128;29;20043;-73
2022/02/14 11:29:47;;;;;;;0.52;0.50;;;;;;;13.48;68.35;99267.44;4925623;29;20032;-75
2022/02/14 11:32:17;;;;;;;0.85;0.70;;;;;;;13.34;68.41;99259.53;4926982;29;20039;-77
2022/02/14 11:34:55;;;;;;;2.03;0.60;;;;;;;13.31;69.11;99268.47;4925053;29;20111;-74
2022/02/14 11:37:21;;;;;;;1.20;0.95;;;;;;;13.32;69.65;99272.69;4923999;29;20081;-74
2022/02/14 11:39:47;;;;;;;0.80;0.70;;;;;;;13.20;70.34;99273.25;4926239;29;20638;-74
2022/02/14 11:42:12;;;;;;;0.82;0.70;;;;;;;13.02;70.57;99269.97;4925713;29;20130;-76